Terminal Aerodrome Forecast
Issued by NWS

Home | Current Version | Previous Version | Text Only | Print | Product List | Glossary On
Versions: 1 2 3 4 5 6 7 8 9 10 11 12 13 14
000
FTUS43 KGLD 160500
TAFMCK
TAF
KMCK 160520Z 1606/1706 18011KT P6SM BKN150
     FM161100 30015G25KT P6SM SCT150 BKN250
     FM161500 32024G36KT P6SM FEW250
     FM162100 33016G25KT P6SM SCT070
     FM170000 36013KT P6SM SCT070 SCT300
     FM170200 03006KT P6SM SCT060 SCT250=

USA.gov is the U.S. government's official web portal to all federal, state and local government web resources and services.